sensor_id;sensor_type;location;lat;lon;timestamp;P1;durP1;ratioP1;P2;durP2;ratioP2
11255;SDS011;5685;52.384;13.420;2023-05-19T00:00:19;76.67;;;39.40;;
11255;SDS011;5685;52.384;13.420;2023-05-19T00:03:22;76.70;;;39.47;;
11255;SDS011;5685;52.384;13.420;2023-05-19T00:06:26;76.80;;;39.50;;
11255;SDS011;5685;52.384;13.420;2023-05-19T00:09:31;77.10;;;39.73;;
11255;SDS011;5685;52.384;13.420;2023-05-19T00:12:33;77.57;;;39.90;;
11255;SDS011;5685;52.384;13.420;2023-05-19T00:15:36;77.40;;;39.83;;
11255;SDS011;5685;52.384;13.420;2023-05-19T00:18:39;76.03;;;39.17;;
11255;SDS011;5685;52.384;13.420;2023-05-19T00:21:43;77.60;;;39.93;;
11255;SDS011;5685;52.384;13.420;2023-05-19T00:24:46;76.80;;;39.53;;
11255;SDS011;5685;52.384;13.420;2023-05-19T00:27:48;77.03;;;39.47;;
11255;SDS011;5685;52.384;13.420;2023-05-19T00:30:50;76.37;;;39.33;;
11255;SDS011;5685;52.384;13.420;2023-05-19T00:33:53;76.93;;;39.50;;
11255;SDS011;5685;52.384;13.420;2023-05-19T00:36:57;76.90;;;39.57;;
11255;SDS011;5685;52.384;13.420;2023-05-19T00:39:59;77.37;;;39.77;;
11255;SDS011;5685;52.384;13.420;2023-05-19T00:43:01;77.00;;;39.60;;
11255;SDS011;5685;52.384;13.420;2023-05-19T00:46:04;77.00;;;39.50;;
11255;SDS011;5685;52.384;13.420;2023-05-19T00:49:07;77.03;;;39.60;;
11255;SDS011;5685;52.384;13.420;2023-05-19T00:52:11;76.70;;;39.43;;
11255;SDS011;5685;52.384;13.420;2023-05-19T00:55:13;76.87;;;39.60;;
11255;SDS011;5685;52.384;13.420;2023-05-19T00:58:16;77.00;;;39.60;;
11255;SDS011;5685;52.384;13.420;2023-05-19T01:01:19;76.73;;;39.40;;
11255;SDS011;5685;52.384;13.420;2023-05-19T01:04:21;76.57;;;39.30;;
11255;SDS011;5685;52.384;13.420;2023-05-19T01:07:26;76.70;;;39.50;;
11255;SDS011;5685;52.384;13.420;2023-05-19T01:10:29;77.60;;;39.80;;
11255;SDS011;5685;52.384;13.420;2023-05-19T01:13:31;77.23;;;39.60;;
11255;SDS011;5685;52.384;13.420;2023-05-19T01:16:35;77.33;;;39.53;;
11255;SDS011;5685;52.384;13.420;2023-05-19T01:19:53;76.70;;;39.40;;
11255;SDS011;5685;52.384;13.420;2023-05-19T01:26:24;76.57;;;39.40;;
11255;SDS011;5685;52.384;13.420;2023-05-19T01:29:37;76.63;;;39.37;;
11255;SDS011;5685;52.384;13.420;2023-05-19T01:32:43;76.83;;;39.50;;
11255;SDS011;5685;52.384;13.420;2023-05-19T01:35:46;77.03;;;39.50;;
11255;SDS011;5685;52.384;13.420;2023-05-19T01:38:50;76.80;;;39.47;;
11255;SDS011;5685;52.384;13.420;2023-05-19T01:41:52;76.83;;;39.40;;
11255;SDS011;5685;52.384;13.420;2023-05-19T01:44:55;77.10;;;39.60;;
11255;SDS011;5685;52.384;13.420;2023-05-19T01:48:01;76.23;;;39.13;;
11255;SDS011;5685;52.384;13.420;2023-05-19T01:51:04;76.40;;;39.27;;
11255;SDS011;5685;52.384;13.420;2023-05-19T01:54:06;76.43;;;39.33;;
11255;SDS011;5685;52.384;13.420;2023-05-19T01:57:09;76.53;;;39.30;;
11255;SDS011;5685;52.384;13.420;2023-05-19T02:00:15;76.43;;;39.43;;
11255;SDS011;5685;52.384;13.420;2023-05-19T02:03:24;76.90;;;39.70;;
11255;SDS011;5685;52.384;13.420;2023-05-19T02:06:29;76.63;;;39.50;;
11255;SDS011;5685;52.384;13.420;2023-05-19T02:09:36;76.67;;;39.40;;
11255;SDS011;5685;52.384;13.420;2023-05-19T02:12:39;76.57;;;39.43;;
11255;SDS011;5685;52.384;13.420;2023-05-19T02:15:42;77.03;;;39.67;;
11255;SDS011;5685;52.384;13.420;2023-05-19T02:18:47;76.90;;;39.60;;
11255;SDS011;5685;52.384;13.420;2023-05-19T02:21:52;76.50;;;39.40;;
11255;SDS011;5685;52.384;13.420;2023-05-19T02:24:55;76.43;;;39.33;;
11255;SDS011;5685;52.384;13.420;2023-05-19T02:27:57;76.60;;;39.60;;
11255;SDS011;5685;52.384;13.420;2023-05-19T02:31:00;77.53;;;39.90;;
11255;SDS011;5685;52.384;13.420;2023-05-19T02:34:05;77.00;;;39.67;;
11255;SDS011;5685;52.384;13.420;2023-05-19T02:37:08;76.67;;;39.30;;
11255;SDS011;5685;52.384;13.420;2023-05-19T02:40:11;76.50;;;39.23;;
11255;SDS011;5685;52.384;13.420;2023-05-19T02:43:13;76.60;;;39.30;;
11255;SDS011;5685;52.384;13.420;2023-05-19T02:46:16;77.80;;;40.00;;
11255;SDS011;5685;52.384;13.420;2023-05-19T02:49:19;76.23;;;39.13;;
11255;SDS011;5685;52.384;13.420;2023-05-19T02:52:22;76.67;;;39.40;;
11255;SDS011;5685;52.384;13.420;2023-05-19T02:55:24;76.80;;;39.33;;
11255;SDS011;5685;52.384;13.420;2023-05-19T02:58:26;76.37;;;39.27;;
11255;SDS011;5685;52.384;13.420;2023-05-19T03:01:29;77.13;;;39.63;;
11255;SDS011;5685;52.384;13.420;2023-05-19T03:04:34;76.30;;;39.17;;
11255;SDS011;5685;52.384;13.420;2023-05-19T03:07:41;76.17;;;39.07;;
11255;SDS011;5685;52.384;13.420;2023-05-19T03:10:44;76.73;;;39.37;;
11255;SDS011;5685;52.384;13.420;2023-05-19T03:13:46;77.00;;;39.50;;
11255;SDS011;5685;52.384;13.420;2023-05-19T03:16:49;77.23;;;39.47;;
11255;SDS011;5685;52.384;13.420;2023-05-19T03:19:52;76.67;;;39.37;;
11255;SDS011;5685;52.384;13.420;2023-05-19T03:22:55;77.10;;;39.43;;
11255;SDS011;5685;52.384;13.420;2023-05-19T03:25:57;76.87;;;39.37;;
11255;SDS011;5685;52.384;13.420;2023-05-19T03:29:00;76.67;;;39.20;;
11255;SDS011;5685;52.384;13.420;2023-05-19T03:32:02;77.27;;;39.60;;
11255;SDS011;5685;52.384;13.420;2023-05-19T03:35:06;76.80;;;39.37;;
11255;SDS011;5685;52.384;13.420;2023-05-19T03:38:09;76.40;;;39.10;;
11255;SDS011;5685;52.384;13.420;2023-05-19T03:41:11;76.80;;;39.23;;
11255;SDS011;5685;52.384;13.420;2023-05-19T03:44:13;76.10;;;38.93;;
11255;SDS011;5685;52.384;13.420;2023-05-19T03:47:16;77.00;;;39.40;;
11255;SDS011;5685;52.384;13.420;2023-05-19T03:50:20;77.00;;;39.27;;
11255;SDS011;5685;52.384;13.420;2023-05-19T03:53:22;77.67;;;39.63;;
11255;SDS011;5685;52.384;13.420;2023-05-19T03:56:25;77.20;;;39.37;;
11255;SDS011;5685;52.384;13.420;2023-05-19T03:59:27;77.20;;;39.43;;
11255;SDS011;5685;52.384;13.420;2023-05-19T04:02:30;77.33;;;39.50;;
11255;SDS011;5685;52.384;13.420;2023-05-19T04:05:34;76.47;;;39.00;;
11255;SDS011;5685;52.384;13.420;2023-05-19T04:08:36;76.73;;;39.13;;
11255;SDS011;5685;52.384;13.420;2023-05-19T04:11:38;77.30;;;39.47;;
11255;SDS011;5685;52.384;13.420;2023-05-19T04:14:41;76.17;;;38.90;;
11255;SDS011;5685;52.384;13.420;2023-05-19T04:17:43;77.43;;;39.53;;
11255;SDS011;5685;52.384;13.420;2023-05-19T04:20:47;77.40;;;39.50;;
11255;SDS011;5685;52.384;13.420;2023-05-19T04:23:50;76.13;;;38.87;;
11255;SDS011;5685;52.384;13.420;2023-05-19T04:26:52;76.40;;;39.00;;
11255;SDS011;5685;52.384;13.420;2023-05-19T04:29:55;76.97;;;39.20;;
11255;SDS011;5685;52.384;13.420;2023-05-19T04:32:57;77.30;;;39.50;;
11255;SDS011;5685;52.384;13.420;2023-05-19T04:36:01;76.87;;;39.27;;
11255;SDS011;5685;52.384;13.420;2023-05-19T04:39:07;77.40;;;39.53;;
11255;SDS011;5685;52.384;13.420;2023-05-19T04:42:11;76.70;;;39.03;;
11255;SDS011;5685;52.384;13.420;2023-05-19T04:45:13;76.40;;;38.93;;
11255;SDS011;5685;52.384;13.420;2023-05-19T04:48:16;76.67;;;39.17;;
11255;SDS011;5685;52.384;13.420;2023-05-19T04:51:22;76.73;;;39.10;;
11255;SDS011;5685;52.384;13.420;2023-05-19T04:54:27;77.00;;;39.27;;
11255;SDS011;5685;52.384;13.420;2023-05-19T04:57:29;77.20;;;39.20;;
11255;SDS011;5685;52.384;13.420;2023-05-19T05:00:31;76.53;;;38.90;;
11255;SDS011;5685;52.384;13.420;2023-05-19T05:03:35;76.20;;;38.77;;
11255;SDS011;5685;52.384;13.420;2023-05-19T05:06:39;77.27;;;39.40;;
11255;SDS011;5685;52.384;13.420;2023-05-19T05:09:46;77.57;;;39.50;;
11255;SDS011;5685;52.384;13.420;2023-05-19T05:12:49;76.37;;;38.90;;
11255;SDS011;5685;52.384;13.420;2023-05-19T05:15:51;76.83;;;39.07;;
11255;SDS011;5685;52.384;13.420;2023-05-19T05:18:55;76.33;;;38.80;;
11255;SDS011;5685;52.384;13.420;2023-05-19T05:21:59;76.87;;;39.20;;
11255;SDS011;5685;52.384;13.420;2023-05-19T05:25:02;76.20;;;38.90;;
11255;SDS011;5685;52.384;13.420;2023-05-19T05:28:05;76.97;;;39.20;;
11255;SDS011;5685;52.384;13.420;2023-05-19T05:31:08;77.27;;;39.33;;
11255;SDS011;5685;52.384;13.420;2023-05-19T05:34:10;76.67;;;38.97;;
11255;SDS011;5685;52.384;13.420;2023-05-19T05:37:14;76.47;;;38.97;;
11255;SDS011;5685;52.384;13.420;2023-05-19T05:40:16;77.10;;;39.20;;
11255;SDS011;5685;52.384;13.420;2023-05-19T05:43:19;76.83;;;39.07;;
11255;SDS011;5685;52.384;13.420;2023-05-19T05:46:21;76.50;;;39.00;;
11255;SDS011;5685;52.384;13.420;2023-05-19T05:49:24;76.93;;;39.20;;
11255;SDS011;5685;52.384;13.420;2023-05-19T05:52:28;76.50;;;38.97;;
11255;SDS011;5685;52.384;13.420;2023-05-19T05:55:31;76.80;;;39.07;;
11255;SDS011;5685;52.384;13.420;2023-05-19T05:58:33;77.20;;;39.37;;
11255;SDS011;5685;52.384;13.420;2023-05-19T06:01:36;77.07;;;39.27;;
11255;SDS011;5685;52.384;13.420;2023-05-19T06:04:39;76.83;;;39.13;;
11255;SDS011;5685;52.384;13.420;2023-05-19T06:07:42;76.93;;;39.20;;
11255;SDS011;5685;52.384;13.420;2023-05-19T06:10:45;76.20;;;38.80;;
11255;SDS011;5685;52.384;13.420;2023-05-19T06:13:47;75.90;;;38.83;;
11255;SDS011;5685;52.384;13.420;2023-05-19T06:16:49;76.27;;;38.80;;
11255;SDS011;5685;52.384;13.420;2023-05-19T06:19:52;76.47;;;39.03;;
11255;SDS011;5685;52.384;13.420;2023-05-19T06:22:56;77.03;;;39.47;;
11255;SDS011;5685;52.384;13.420;2023-05-19T06:25:58;76.77;;;39.27;;
11255;SDS011;5685;52.384;13.420;2023-05-19T06:29:00;75.67;;;38.70;;
11255;SDS011;5685;52.384;13.420;2023-05-19T06:32:03;77.20;;;39.40;;
11255;SDS011;5685;52.384;13.420;2023-05-19T06:35:05;76.63;;;39.10;;
11255;SDS011;5685;52.384;13.420;2023-05-19T06:38:09;76.60;;;39.13;;
11255;SDS011;5685;52.384;13.420;2023-05-19T06:41:12;76.70;;;39.10;;
11255;SDS011;5685;52.384;13.420;2023-05-19T06:44:14;76.53;;;39.00;;
11255;SDS011;5685;52.384;13.420;2023-05-19T06:47:16;76.90;;;39.27;;
11255;SDS011;5685;52.384;13.420;2023-05-19T06:50:19;76.30;;;38.90;;
11255;SDS011;5685;52.384;13.420;2023-05-19T06:53:23;76.93;;;39.30;;
11255;SDS011;5685;52.384;13.420;2023-05-19T06:56:25;77.03;;;39.17;;
11255;SDS011;5685;52.384;13.420;2023-05-19T06:59:27;77.40;;;39.53;;
11255;SDS011;5685;52.384;13.420;2023-05-19T07:02:29;76.63;;;39.10;;
11255;SDS011;5685;52.384;13.420;2023-05-19T07:05:32;76.43;;;39.07;;
11255;SDS011;5685;52.384;13.420;2023-05-19T07:08:35;76.80;;;39.30;;
11255;SDS011;5685;52.384;13.420;2023-05-19T07:11:38;76.87;;;39.20;;
11255;SDS011;5685;52.384;13.420;2023-05-19T07:14:40;76.53;;;39.20;;
11255;SDS011;5685;52.384;13.420;2023-05-19T07:17:42;76.40;;;39.07;;
11255;SDS011;5685;52.384;13.420;2023-05-19T07:20:45;76.27;;;39.10;;
11255;SDS011;5685;52.384;13.420;2023-05-19T07:23:48;76.20;;;39.03;;
11255;SDS011;5685;52.384;13.420;2023-05-19T07:26:51;76.37;;;39.20;;
11255;SDS011;5685;52.384;13.420;2023-05-19T07:29:53;76.40;;;39.20;;
11255;SDS011;5685;52.384;13.420;2023-05-19T07:32:55;76.60;;;39.30;;
11255;SDS011;5685;52.384;13.420;2023-05-19T07:35:58;76.43;;;39.23;;
11255;SDS011;5685;52.384;13.420;2023-05-19T07:39:02;76.50;;;39.30;;
11255;SDS011;5685;52.384;13.420;2023-05-19T07:42:04;76.47;;;39.27;;
11255;SDS011;5685;52.384;13.420;2023-05-19T07:45:07;76.43;;;39.20;;
11255;SDS011;5685;52.384;13.420;2023-05-19T07:48:09;76.13;;;39.10;;
11255;SDS011;5685;52.384;13.420;2023-05-19T07:51:11;76.13;;;39.10;;
11255;SDS011;5685;52.384;13.420;2023-05-19T07:54:16;76.50;;;39.27;;
11255;SDS011;5685;52.384;13.420;2023-05-19T07:57:18;76.13;;;39.10;;
11255;SDS011;5685;52.384;13.420;2023-05-19T08:00:21;76.47;;;39.27;;
11255;SDS011;5685;52.384;13.420;2023-05-19T08:03:23;76.23;;;39.20;;
11255;SDS011;5685;52.384;13.420;2023-05-19T08:06:26;76.67;;;39.40;;
11255;SDS011;5685;52.384;13.420;2023-05-19T08:09:30;76.27;;;39.30;;
11255;SDS011;5685;52.384;13.420;2023-05-19T08:12:32;76.67;;;39.30;;
11255;SDS011;5685;52.384;13.420;2023-05-19T08:15:35;76.67;;;39.30;;
11255;SDS011;5685;52.384;13.420;2023-05-19T08:18:37;75.70;;;38.90;;
11255;SDS011;5685;52.384;13.420;2023-05-19T08:21:39;76.43;;;39.27;;
11255;SDS011;5685;52.384;13.420;2023-05-19T08:24:43;76.73;;;39.47;;
11255;SDS011;5685;52.384;13.420;2023-05-19T08:27:48;75.90;;;39.00;;
11255;SDS011;5685;52.384;13.420;2023-05-19T08:30:51;76.43;;;39.30;;
11255;SDS011;5685;52.384;13.420;2023-05-19T08:33:53;76.17;;;39.10;;
11255;SDS011;5685;52.384;13.420;2023-05-19T08:36:55;75.73;;;38.97;;
11255;SDS011;5685;52.384;13.420;2023-05-19T08:40:00;76.33;;;39.30;;
11255;SDS011;5685;52.384;13.420;2023-05-19T08:43:04;75.77;;;39.20;;
11255;SDS011;5685;52.384;13.420;2023-05-19T08:46:06;75.57;;;39.10;;
11255;SDS011;5685;52.384;13.420;2023-05-19T08:49:09;76.07;;;39.40;;
11255;SDS011;5685;52.384;13.420;2023-05-19T08:52:16;76.07;;;39.30;;
11255;SDS011;5685;52.384;13.420;2023-05-19T08:55:27;76.30;;;39.40;;
11255;SDS011;5685;52.384;13.420;2023-05-19T08:58:33;76.00;;;39.23;;
11255;SDS011;5685;52.384;13.420;2023-05-19T09:01:36;75.80;;;39.20;;
11255;SDS011;5685;52.384;13.420;2023-05-19T09:04:38;76.13;;;39.10;;
11255;SDS011;5685;52.384;13.420;2023-05-19T09:07:44;75.80;;;39.13;;
11255;SDS011;5685;52.384;13.420;2023-05-19T09:10:48;76.13;;;39.27;;
11255;SDS011;5685;52.384;13.420;2023-05-19T09:13:51;76.23;;;39.37;;
11255;SDS011;5685;52.384;13.420;2023-05-19T09:16:53;76.00;;;39.20;;
11255;SDS011;5685;52.384;13.420;2023-05-19T09:19:56;75.80;;;39.20;;
11255;SDS011;5685;52.384;13.420;2023-05-19T09:23:03;75.70;;;39.10;;
11255;SDS011;5685;52.384;13.420;2023-05-19T09:26:08;76.43;;;39.33;;
11255;SDS011;5685;52.384;13.420;2023-05-19T09:29:10;76.47;;;39.43;;
11255;SDS011;5685;52.384;13.420;2023-05-19T09:32:13;75.73;;;39.20;;
11255;SDS011;5685;52.384;13.420;2023-05-19T09:35:25;76.00;;;39.30;;
11255;SDS011;5685;52.384;13.420;2023-05-19T09:38:27;75.43;;;39.00;;
11255;SDS011;5685;52.384;13.420;2023-05-19T09:41:31;75.97;;;39.40;;
11255;SDS011;5685;52.384;13.420;2023-05-19T09:44:34;75.23;;;39.00;;
11255;SDS011;5685;52.384;13.420;2023-05-19T09:47:36;75.47;;;39.10;;
11255;SDS011;5685;52.384;13.420;2023-05-19T09:50:39;75.83;;;39.37;;
11255;SDS011;5685;52.384;13.420;2023-05-19T09:53:41;75.67;;;39.30;;
11255;SDS011;5685;52.384;13.420;2023-05-19T09:56:46;75.27;;;39.00;;
11255;SDS011;5685;52.384;13.420;2023-05-19T09:59:52;75.13;;;39.00;;
11255;SDS011;5685;52.384;13.420;2023-05-19T10:02:55;75.70;;;39.10;;
11255;SDS011;5685;52.384;13.420;2023-05-19T10:05:58;75.27;;;38.93;;
11255;SDS011;5685;52.384;13.420;2023-05-19T10:09:01;75.03;;;38.90;;
11255;SDS011;5685;52.384;13.420;2023-05-19T10:12:06;75.47;;;39.10;;
11255;SDS011;5685;52.384;13.420;2023-05-19T10:15:10;75.20;;;39.10;;
11255;SDS011;5685;52.384;13.420;2023-05-19T10:18:13;75.57;;;39.30;;
11255;SDS011;5685;52.384;13.420;2023-05-19T10:21:17;75.50;;;39.30;;
11255;SDS011;5685;52.384;13.420;2023-05-19T10:24:19;76.00;;;39.40;;
11255;SDS011;5685;52.384;13.420;2023-05-19T10:27:23;75.97;;;39.30;;
11255;SDS011;5685;52.384;13.420;2023-05-19T10:30:27;75.73;;;39.07;;
11255;SDS011;5685;52.384;13.420;2023-05-19T10:33:33;75.00;;;38.80;;
11255;SDS011;5685;52.384;13.420;2023-05-19T10:36:41;75.60;;;39.10;;
11255;SDS011;5685;52.384;13.420;2023-05-19T10:39:45;75.43;;;39.00;;
11255;SDS011;5685;52.384;13.420;2023-05-19T10:42:55;75.93;;;39.20;;
11255;SDS011;5685;52.384;13.420;2023-05-19T10:45:59;75.40;;;39.00;;
11255;SDS011;5685;52.384;13.420;2023-05-19T10:49:02;75.70;;;39.00;;
11255;SDS011;5685;52.384;13.420;2023-05-19T10:52:07;76.00;;;39.30;;
11255;SDS011;5685;52.384;13.420;2023-05-19T10:58:51;76.17;;;39.40;;
11255;SDS011;5685;52.384;13.420;2023-05-19T11:01:53;75.80;;;39.30;;
11255;SDS011;5685;52.384;13.420;2023-05-19T11:04:56;75.70;;;39.10;;
11255;SDS011;5685;52.384;13.420;2023-05-19T11:08:08;76.07;;;39.30;;
11255;SDS011;5685;52.384;13.420;2023-05-19T11:11:13;75.80;;;39.20;;
11255;SDS011;5685;52.384;13.420;2023-05-19T11:14:19;75.90;;;39.30;;
11255;SDS011;5685;52.384;13.420;2023-05-19T11:17:23;75.80;;;39.03;;
11255;SDS011;5685;52.384;13.420;2023-05-19T11:20:26;75.77;;;39.10;;
11255;SDS011;5685;52.384;13.420;2023-05-19T11:23:32;75.53;;;39.00;;
11255;SDS011;5685;52.384;13.420;2023-05-19T11:26:40;76.10;;;39.40;;
11255;SDS011;5685;52.384;13.420;2023-05-19T11:29:44;76.00;;;39.17;;
11255;SDS011;5685;52.384;13.420;2023-05-19T11:32:48;76.10;;;39.40;;
11255;SDS011;5685;52.384;13.420;2023-05-19T11:35:50;76.23;;;39.40;;
11255;SDS011;5685;52.384;13.420;2023-05-19T11:38:54;76.20;;;39.33;;
11255;SDS011;5685;52.384;13.420;2023-05-19T11:41:56;76.67;;;39.50;;
11255;SDS011;5685;52.384;13.420;2023-05-19T11:45:00;76.57;;;39.40;;
11255;SDS011;5685;52.384;13.420;2023-05-19T11:48:02;76.37;;;39.33;;
11255;SDS011;5685;52.384;13.420;2023-05-19T11:51:05;76.87;;;39.67;;
11255;SDS011;5685;52.384;13.420;2023-05-19T11:54:08;75.97;;;39.00;;
11255;SDS011;5685;52.384;13.420;2023-05-19T11:57:11;76.23;;;39.27;;
11255;SDS011;5685;52.384;13.420;2023-05-19T12:00:15;76.47;;;39.30;;
11255;SDS011;5685;52.384;13.420;2023-05-19T12:03:19;77.10;;;39.80;;
11255;SDS011;5685;52.384;13.420;2023-05-19T12:06:25;76.60;;;39.50;;
11255;SDS011;5685;52.384;13.420;2023-05-19T12:09:28;76.60;;;39.40;;
11255;SDS011;5685;52.384;13.420;2023-05-19T12:12:30;76.27;;;39.30;;
11255;SDS011;5685;52.384;13.420;2023-05-19T12:15:35;76.60;;;39.40;;
11255;SDS011;5685;52.384;13.420;2023-05-19T12:18:38;76.00;;;39.20;;
11255;SDS011;5685;52.384;13.420;2023-05-19T12:21:41;76.67;;;39.50;;
11255;SDS011;5685;52.384;13.420;2023-05-19T12:24:43;76.40;;;39.43;;
11255;SDS011;5685;52.384;13.420;2023-05-19T12:27:46;76.60;;;39.60;;
11255;SDS011;5685;52.384;13.420;2023-05-19T12:30:50;76.70;;;39.70;;
11255;SDS011;5685;52.384;13.420;2023-05-19T12:33:53;76.07;;;39.47;;
11255;SDS011;5685;52.384;13.420;2023-05-19T12:36:56;76.27;;;39.50;;
11255;SDS011;5685;52.384;13.420;2023-05-19T12:39:59;76.00;;;39.47;;
11255;SDS011;5685;52.384;13.420;2023-05-19T12:43:03;76.17;;;39.47;;
11255;SDS011;5685;52.384;13.420;2023-05-19T12:46:10;76.40;;;39.70;;
11255;SDS011;5685;52.384;13.420;2023-05-19T12:49:12;76.20;;;39.50;;
11255;SDS011;5685;52.384;13.420;2023-05-19T12:52:15;76.50;;;39.70;;
11255;SDS011;5685;52.384;13.420;2023-05-19T12:55:17;76.17;;;39.70;;
11255;SDS011;5685;52.384;13.420;2023-05-19T12:58:21;75.97;;;39.50;;
11255;SDS011;5685;52.384;13.420;2023-05-19T13:01:25;76.50;;;39.80;;
11255;SDS011;5685;52.384;13.420;2023-05-19T13:04:27;76.10;;;39.60;;
11255;SDS011;5685;52.384;13.420;2023-05-19T13:07:29;76.47;;;39.80;;
11255;SDS011;5685;52.384;13.420;2023-05-19T13:10:32;76.13;;;39.70;;
11255;SDS011;5685;52.384;13.420;2023-05-19T13:13:35;75.93;;;39.47;;
11255;SDS011;5685;52.384;13.420;2023-05-19T13:16:39;75.87;;;39.50;;
11255;SDS011;5685;52.384;13.420;2023-05-19T13:19:41;76.00;;;39.50;;
11255;SDS011;5685;52.384;13.420;2023-05-19T13:22:44;76.40;;;39.80;;
11255;SDS011;5685;52.384;13.420;2023-05-19T13:25:48;76.43;;;39.70;;
11255;SDS011;5685;52.384;13.420;2023-05-19T13:28:51;76.53;;;39.70;;
11255;SDS011;5685;52.384;13.420;2023-05-19T13:31:55;76.50;;;39.80;;
11255;SDS011;5685;52.384;13.420;2023-05-19T13:34:58;76.53;;;39.77;;
11255;SDS011;5685;52.384;13.420;2023-05-19T13:38:00;76.10;;;39.53;;
11255;SDS011;5685;52.384;13.420;2023-05-19T13:41:03;76.57;;;39.73;;
11255;SDS011;5685;52.384;13.420;2023-05-19T13:44:06;76.53;;;39.67;;
11255;SDS011;5685;52.384;13.420;2023-05-19T13:47:10;76.47;;;39.60;;
11255;SDS011;5685;52.384;13.420;2023-05-19T13:50:12;76.57;;;39.70;;
11255;SDS011;5685;52.384;13.420;2023-05-19T13:53:15;76.20;;;39.53;;
11255;SDS011;5685;52.384;13.420;2023-05-19T13:56:17;76.80;;;39.80;;
11255;SDS011;5685;52.384;13.420;2023-05-19T13:59:19;76.37;;;39.57;;
11255;SDS011;5685;52.384;13.420;2023-05-19T14:02:23;75.97;;;39.40;;
11255;SDS011;5685;52.384;13.420;2023-05-19T14:05:25;76.67;;;39.80;;
11255;SDS011;5685;52.384;13.420;2023-05-19T14:08:27;76.77;;;39.90;;
11255;SDS011;5685;52.384;13.420;2023-05-19T14:11:30;76.77;;;39.77;;
11255;SDS011;5685;52.384;13.420;2023-05-19T14:14:32;76.37;;;39.60;;
11255;SDS011;5685;52.384;13.420;2023-05-19T14:17:36;76.63;;;39.80;;
11255;SDS011;5685;52.384;13.420;2023-05-19T14:20:38;76.77;;;39.97;;
11255;SDS011;5685;52.384;13.420;2023-05-19T14:23:40;77.03;;;39.97;;
11255;SDS011;5685;52.384;13.420;2023-05-19T14:26:43;76.73;;;39.80;;
11255;SDS011;5685;52.384;13.420;2023-05-19T14:29:45;76.77;;;39.77;;
11255;SDS011;5685;52.384;13.420;2023-05-19T14:32:49;76.70;;;39.80;;
11255;SDS011;5685;52.384;13.420;2023-05-19T14:35:51;76.83;;;39.90;;
11255;SDS011;5685;52.384;13.420;2023-05-19T14:38:54;76.23;;;39.50;;
11255;SDS011;5685;52.384;13.420;2023-05-19T14:41:56;76.13;;;39.47;;
11255;SDS011;5685;52.384;13.420;2023-05-19T14:44:59;76.50;;;39.60;;
11255;SDS011;5685;52.384;13.420;2023-05-19T14:48:03;76.77;;;39.87;;
11255;SDS011;5685;52.384;13.420;2023-05-19T14:51:06;76.70;;;39.93;;
11255;SDS011;5685;52.384;13.420;2023-05-19T14:54:08;76.47;;;39.63;;
11255;SDS011;5685;52.384;13.420;2023-05-19T14:57:10;76.53;;;39.73;;
11255;SDS011;5685;52.384;13.420;2023-05-19T15:00:13;76.13;;;39.57;;
11255;SDS011;5685;52.384;13.420;2023-05-19T15:03:17;76.57;;;39.70;;
11255;SDS011;5685;52.384;13.420;2023-05-19T15:06:19;76.60;;;39.83;;
11255;SDS011;5685;52.384;13.420;2023-05-19T15:09:22;76.63;;;39.77;;
11255;SDS011;5685;52.384;13.420;2023-05-19T15:12:25;76.23;;;39.60;;
11255;SDS011;5685;52.384;13.420;2023-05-19T15:15:27;76.73;;;39.90;;
11255;SDS011;5685;52.384;13.420;2023-05-19T15:18:31;76.80;;;39.90;;
11255;SDS011;5685;52.384;13.420;2023-05-19T15:21:33;77.23;;;40.20;;
11255;SDS011;5685;52.384;13.420;2023-05-19T15:24:36;76.53;;;39.70;;
11255;SDS011;5685;52.384;13.420;2023-05-19T15:27:38;76.53;;;39.80;;
11255;SDS011;5685;52.384;13.420;2023-05-19T15:30:40;76.40;;;39.60;;
11255;SDS011;5685;52.384;13.420;2023-05-19T15:33:45;76.80;;;39.83;;
11255;SDS011;5685;52.384;13.420;2023-05-19T15:36:47;77.23;;;40.10;;
11255;SDS011;5685;52.384;13.420;2023-05-19T15:39:50;77.33;;;40.07;;
11255;SDS011;5685;52.384;13.420;2023-05-19T15:42:53;76.93;;;40.07;;
11255;SDS011;5685;52.384;13.420;2023-05-19T15:45:56;76.43;;;39.70;;
11255;SDS011;5685;52.384;13.420;2023-05-19T15:49:00;77.00;;;39.97;;
11255;SDS011;5685;52.384;13.420;2023-05-19T15:52:02;76.77;;;39.80;;
11255;SDS011;5685;52.384;13.420;2023-05-19T15:55:05;77.23;;;40.10;;
11255;SDS011;5685;52.384;13.420;2023-05-19T15:58:08;76.90;;;39.80;;
11255;SDS011;5685;52.384;13.420;2023-05-19T16:01:10;76.50;;;39.67;;
11255;SDS011;5685;52.384;13.420;2023-05-19T16:04:14;76.20;;;39.57;;
11255;SDS011;5685;52.384;13.420;2023-05-19T16:07:16;77.00;;;39.90;;
11255;SDS011;5685;52.384;13.420;2023-05-19T16:10:21;76.60;;;39.80;;
11255;SDS011;5685;52.384;13.420;2023-05-19T16:13:23;76.83;;;39.93;;
11255;SDS011;5685;52.384;13.420;2023-05-19T16:16:25;76.67;;;39.93;;
11255;SDS011;5685;52.384;13.420;2023-05-19T16:19:29;76.77;;;39.97;;
11255;SDS011;5685;52.384;13.420;2023-05-19T16:22:32;76.97;;;40.07;;
11255;SDS011;5685;52.384;13.420;2023-05-19T16:25:34;76.57;;;39.90;;
11255;SDS011;5685;52.384;13.420;2023-05-19T16:28:36;77.17;;;40.20;;
11255;SDS011;5685;52.384;13.420;2023-05-19T16:31:39;76.70;;;40.00;;
11255;SDS011;5685;52.384;13.420;2023-05-19T16:34:42;76.97;;;40.20;;
11255;SDS011;5685;52.384;13.420;2023-05-19T16:37:45;76.87;;;40.00;;
11255;SDS011;5685;52.384;13.420;2023-05-19T16:40:47;76.33;;;39.77;;
11255;SDS011;5685;52.384;13.420;2023-05-19T16:43:50;76.90;;;40.07;;
11255;SDS011;5685;52.384;13.420;2023-05-19T16:46:52;77.33;;;40.33;;
11255;SDS011;5685;52.384;13.420;2023-05-19T16:49:56;77.13;;;40.07;;
11255;SDS011;5685;52.384;13.420;2023-05-19T16:52:58;76.67;;;39.97;;
11255;SDS011;5685;52.384;13.420;2023-05-19T16:56:00;77.23;;;40.17;;
11255;SDS011;5685;52.384;13.420;2023-05-19T16:59:02;76.90;;;40.20;;
11255;SDS011;5685;52.384;13.420;2023-05-19T17:02:05;77.13;;;40.27;;
11255;SDS011;5685;52.384;13.420;2023-05-19T17:05:09;77.30;;;40.30;;
11255;SDS011;5685;52.384;13.420;2023-05-19T17:08:11;77.03;;;40.27;;
11255;SDS011;5685;52.384;13.420;2023-05-19T17:11:13;77.17;;;40.27;;
11255;SDS011;5685;52.384;13.420;2023-05-19T17:14:16;76.67;;;40.00;;
11255;SDS011;5685;52.384;13.420;2023-05-19T17:17:18;77.17;;;40.27;;
11255;SDS011;5685;52.384;13.420;2023-05-19T17:20:22;76.97;;;40.10;;
11255;SDS011;5685;52.384;13.420;2023-05-19T17:23:24;76.77;;;40.17;;
11255;SDS011;5685;52.384;13.420;2023-05-19T17:26:26;77.20;;;40.30;;
11255;SDS011;5685;52.384;13.420;2023-05-19T17:29:29;76.60;;;40.03;;
11255;SDS011;5685;52.384;13.420;2023-05-19T17:32:31;76.83;;;40.17;;
11255;SDS011;5685;52.384;13.420;2023-05-19T17:35:38;76.63;;;40.03;;
11255;SDS011;5685;52.384;13.420;2023-05-19T17:38:41;77.10;;;40.37;;
11255;SDS011;5685;52.384;13.420;2023-05-19T17:41:43;76.73;;;40.10;;
11255;SDS011;5685;52.384;13.420;2023-05-19T17:44:45;76.60;;;40.03;;
11255;SDS011;5685;52.384;13.420;2023-05-19T17:47:48;76.70;;;40.07;;
11255;SDS011;5685;52.384;13.420;2023-05-19T17:50:52;76.43;;;39.90;;
11255;SDS011;5685;52.384;13.420;2023-05-19T17:53:54;77.30;;;40.27;;
11255;SDS011;5685;52.384;13.420;2023-05-19T17:56:57;77.50;;;40.37;;